sensor_id;sensor_type;location;lat;lon;timestamp;temperature;humidity
16867;DHT22;8550;52.596;13.320;2023-02-28T00:02:58;0.50;99.90
16867;DHT22;8550;52.596;13.320;2023-02-28T00:08:00;0.50;99.90
16867;DHT22;8550;52.596;13.320;2023-02-28T00:13:03;0.40;99.90
16867;DHT22;8550;52.596;13.320;2023-02-28T00:18:09;0.30;99.90
16867;DHT22;8550;52.596;13.320;2023-02-28T00:23:12;0.20;99.90
16867;DHT22;8550;52.596;13.320;2023-02-28T00:28:14;0.10;99.90
16867;DHT22;8550;52.596;13.320;2023-02-28T00:33:17;0.00;99.90
16867;DHT22;8550;52.596;13.320;2023-02-28T00:38:20;0.00;99.90
16867;DHT22;8550;52.596;13.320;2023-02-28T00:43:22;0.00;99.90
16867;DHT22;8550;52.596;13.320;2023-02-28T00:48:26;0.10;99.90
16867;DHT22;8550;52.596;13.320;2023-02-28T00:53:28;-0.20;99.90
16867;DHT22;8550;52.596;13.320;2023-02-28T00:58:30;-0.20;99.90
16867;DHT22;8550;52.596;13.320;2023-02-28T01:03:33;-0.30;99.90
16867;DHT22;8550;52.596;13.320;2023-02-28T01:08:35;-0.40;99.90
16867;DHT22;8550;52.596;13.320;2023-02-28T01:13:37;-0.50;99.90
16867;DHT22;8550;52.596;13.320;2023-02-28T01:18:41;-0.50;99.90
16867;DHT22;8550;52.596;13.320;2023-02-28T01:23:44;-0.50;99.90
16867;DHT22;8550;52.596;13.320;2023-02-28T01:28:49;-0.70;99.90
16867;DHT22;8550;52.596;13.320;2023-02-28T01:33:53;-0.70;99.90
16867;DHT22;8550;52.596;13.320;2023-02-28T01:38:55;-0.80;99.90
16867;DHT22;8550;52.596;13.320;2023-02-28T01:44:00;-0.90;99.90
16867;DHT22;8550;52.596;13.320;2023-02-28T01:49:09;-0.80;99.90
16867;DHT22;8550;52.596;13.320;2023-02-28T01:54:16;-0.80;99.90
16867;DHT22;8550;52.596;13.320;2023-02-28T01:59:24;-1.00;99.90
16867;DHT22;8550;52.596;13.320;2023-02-28T02:04:34;-1.00;99.90
16867;DHT22;8550;52.596;13.320;2023-02-28T02:09:38;-1.00;99.90
16867;DHT22;8550;52.596;13.320;2023-02-28T02:14:48;-1.10;99.90
16867;DHT22;8550;52.596;13.320;2023-02-28T02:20:36;-1.20;99.90
16867;DHT22;8550;52.596;13.320;2023-02-28T02:25:45;-1.10;99.90
16867;DHT22;8550;52.596;13.320;2023-02-28T02:31:06;-1.20;99.90
16867;DHT22;8550;52.596;13.320;2023-02-28T02:36:19;-1.20;99.90
16867;DHT22;8550;52.596;13.320;2023-02-28T02:41:30;-1.20;99.90
16867;DHT22;8550;52.596;13.320;2023-02-28T02:46:35;-1.30;99.90
16867;DHT22;8550;52.596;13.320;2023-02-28T02:51:40;-1.30;99.90
16867;DHT22;8550;52.596;13.320;2023-02-28T02:56:44;-1.30;99.90
16867;DHT22;8550;52.596;13.320;2023-02-28T03:01:49;-1.40;99.90
16867;DHT22;8550;52.596;13.320;2023-02-28T03:06:54;-1.40;99.90
16867;DHT22;8550;52.596;13.320;2023-02-28T03:11:56;-1.50;99.90
16867;DHT22;8550;52.596;13.320;2023-02-28T03:17:19;-1.60;99.90
16867;DHT22;8550;52.596;13.320;2023-02-28T03:22:50;-1.60;99.90
16867;DHT22;8550;52.596;13.320;2023-02-28T03:28:02;-1.60;99.90
16867;DHT22;8550;52.596;13.320;2023-02-28T03:33:08;-1.60;99.90
16867;DHT22;8550;52.596;13.320;2023-02-28T03:38:18;-1.50;99.90
16867;DHT22;8550;52.596;13.320;2023-02-28T03:43:26;-1.70;99.90
16867;DHT22;8550;52.596;13.320;2023-02-28T03:48:35;-1.80;99.90
16867;DHT22;8550;52.596;13.320;2023-02-28T03:53:42;-1.70;99.90
16867;DHT22;8550;52.596;13.320;2023-02-28T03:58:51;-1.70;99.90
16867;DHT22;8550;52.596;13.320;2023-02-28T04:03:55;-1.80;99.90
16867;DHT22;8550;52.596;13.320;2023-02-28T04:08:59;-1.80;99.90
16867;DHT22;8550;52.596;13.320;2023-02-28T04:14:03;-1.80;99.90
16867;DHT22;8550;52.596;13.320;2023-02-28T04:19:06;-1.90;99.90
16867;DHT22;8550;52.596;13.320;2023-02-28T04:24:12;-1.90;99.90
16867;DHT22;8550;52.596;13.320;2023-02-28T04:29:19;-2.00;99.90
16867;DHT22;8550;52.596;13.320;2023-02-28T04:34:21;-2.10;99.90
16867;DHT22;8550;52.596;13.320;2023-02-28T04:39:25;-2.00;99.90
16867;DHT22;8550;52.596;13.320;2023-02-28T04:44:27;-2.20;99.90
16867;DHT22;8550;52.596;13.320;2023-02-28T04:49:29;-2.10;99.90
16867;DHT22;8550;52.596;13.320;2023-02-28T04:54:32;-2.20;99.90
16867;DHT22;8550;52.596;13.320;2023-02-28T04:59:34;-2.20;99.90
16867;DHT22;8550;52.596;13.320;2023-02-28T05:04:37;-2.20;99.90
16867;DHT22;8550;52.596;13.320;2023-02-28T05:09:41;-2.20;99.90
16867;DHT22;8550;52.596;13.320;2023-02-28T05:14:43;-2.30;99.90
16867;DHT22;8550;52.596;13.320;2023-02-28T05:19:45;-2.30;99.90
16867;DHT22;8550;52.596;13.320;2023-02-28T05:24:48;-2.40;99.90
16867;DHT22;8550;52.596;13.320;2023-02-28T05:29:51;-2.50;99.90
16867;DHT22;8550;52.596;13.320;2023-02-28T05:34:53;-2.50;99.90
16867;DHT22;8550;52.596;13.320;2023-02-28T05:39:57;-2.40;99.90
16867;DHT22;8550;52.596;13.320;2023-02-28T05:44:59;-2.50;99.90
16867;DHT22;8550;52.596;13.320;2023-02-28T05:50:01;-2.50;99.90
16867;DHT22;8550;52.596;13.320;2023-02-28T05:55:05;-2.50;99.90
16867;DHT22;8550;52.596;13.320;2023-02-28T06:00:08;-2.40;99.90
16867;DHT22;8550;52.596;13.320;2023-02-28T06:05:13;-2.50;99.90
16867;DHT22;8550;52.596;13.320;2023-02-28T06:10:17;-2.40;99.90
16867;DHT22;8550;52.596;13.320;2023-02-28T06:15:20;-2.40;99.90
16867;DHT22;8550;52.596;13.320;2023-02-28T06:20:24;-2.40;99.90
16867;DHT22;8550;52.596;13.320;2023-02-28T06:25:28;-2.50;99.90
16867;DHT22;8550;52.596;13.320;2023-02-28T06:30:30;-2.40;99.90
16867;DHT22;8550;52.596;13.320;2023-02-28T06:35:32;-2.30;99.90
16867;DHT22;8550;52.596;13.320;2023-02-28T06:40:36;-2.20;99.90
16867;DHT22;8550;52.596;13.320;2023-02-28T06:45:41;-2.10;99.90
16867;DHT22;8550;52.596;13.320;2023-02-28T06:50:44;-2.00;99.90
16867;DHT22;8550;52.596;13.320;2023-02-28T06:55:50;-1.90;99.90
16867;DHT22;8550;52.596;13.320;2023-02-28T07:00:52;-1.80;99.90
16867;DHT22;8550;52.596;13.320;2023-02-28T07:05:54;-1.70;99.90
16867;DHT22;8550;52.596;13.320;2023-02-28T07:10:58;-1.60;99.90
16867;DHT22;8550;52.596;13.320;2023-02-28T07:16:03;-1.40;99.90
16867;DHT22;8550;52.596;13.320;2023-02-28T07:21:07;-1.20;99.90
16867;DHT22;8550;52.596;13.320;2023-02-28T07:26:13;-1.10;99.90
16867;DHT22;8550;52.596;13.320;2023-02-28T07:31:17;-0.80;99.90
16867;DHT22;8550;52.596;13.320;2023-02-28T07:36:19;-0.30;99.90
16867;DHT22;8550;52.596;13.320;2023-02-28T07:41:22;-0.10;99.90
16867;DHT22;8550;52.596;13.320;2023-02-28T07:46:28;0.00;99.90
16867;DHT22;8550;52.596;13.320;2023-02-28T07:51:35;0.20;99.90
16867;DHT22;8550;52.596;13.320;2023-02-28T07:56:39;0.50;99.90
16867;DHT22;8550;52.596;13.320;2023-02-28T08:01:41;0.60;99.90
16867;DHT22;8550;52.596;13.320;2023-02-28T08:06:46;0.80;99.90
16867;DHT22;8550;52.596;13.320;2023-02-28T08:11:49;1.00;99.90
16867;DHT22;8550;52.596;13.320;2023-02-28T08:16:51;1.30;99.90
16867;DHT22;8550;52.596;13.320;2023-02-28T08:21:53;1.50;99.90
16867;DHT22;8550;52.596;13.320;2023-02-28T08:26:56;1.70;99.90
16867;DHT22;8550;52.596;13.320;2023-02-28T08:31:58;1.90;99.90
16867;DHT22;8550;52.596;13.320;2023-02-28T08:37:01;2.10;99.90
16867;DHT22;8550;52.596;13.320;2023-02-28T08:42:05;2.30;99.90
16867;DHT22;8550;52.596;13.320;2023-02-28T08:47:08;2.60;99.90
16867;DHT22;8550;52.596;13.320;2023-02-28T08:52:11;2.90;99.90
16867;DHT22;8550;52.596;13.320;2023-02-28T08:57:14;3.10;98.70
16867;DHT22;8550;52.596;13.320;2023-02-28T09:02:16;3.20;97.60
16867;DHT22;8550;52.596;13.320;2023-02-28T09:07:19;3.40;96.60
16867;DHT22;8550;52.596;13.320;2023-02-28T09:12:25;3.50;97.10
16867;DHT22;8550;52.596;13.320;2023-02-28T09:17:27;3.60;96.50
16867;DHT22;8550;52.596;13.320;2023-02-28T09:22:29;3.80;96.70
16867;DHT22;8550;52.596;13.320;2023-02-28T09:27:33;3.90;96.20
16867;DHT22;8550;52.596;13.320;2023-02-28T09:32:35;4.00;95.40
16867;DHT22;8550;52.596;13.320;2023-02-28T09:37:37;4.20;94.10
16867;DHT22;8550;52.596;13.320;2023-02-28T09:42:40;4.20;93.90
16867;DHT22;8550;52.596;13.320;2023-02-28T09:47:44;4.20;91.30
16867;DHT22;8550;52.596;13.320;2023-02-28T09:52:50;4.30;92.80
16867;DHT22;8550;52.596;13.320;2023-02-28T09:57:55;4.40;92.80
16867;DHT22;8550;52.596;13.320;2023-02-28T10:03:11;4.40;91.20
16867;DHT22;8550;52.596;13.320;2023-02-28T10:08:22;4.60;92.50
16867;DHT22;8550;52.596;13.320;2023-02-28T10:13:34;4.70;90.90
16867;DHT22;8550;52.596;13.320;2023-02-28T10:18:43;4.80;92.30
16867;DHT22;8550;52.596;13.320;2023-02-28T10:23:48;5.00;91.60
16867;DHT22;8550;52.596;13.320;2023-02-28T10:28:53;5.20;91.60
16867;DHT22;8550;52.596;13.320;2023-02-28T10:33:57;5.20;90.80
16867;DHT22;8550;52.596;13.320;2023-02-28T10:38:59;5.50;91.60
16867;DHT22;8550;52.596;13.320;2023-02-28T10:44:15;5.50;90.60
16867;DHT22;8550;52.596;13.320;2023-02-28T10:49:21;5.80;91.20
16867;DHT22;8550;52.596;13.320;2023-02-28T10:54:26;6.80;85.30
16867;DHT22;8550;52.596;13.320;2023-02-28T10:59:32;7.80;80.80
16867;DHT22;8550;52.596;13.320;2023-02-28T11:04:36;8.60;73.10
16867;DHT22;8550;52.596;13.320;2023-02-28T11:09:41;8.50;71.70
16867;DHT22;8550;52.596;13.320;2023-02-28T11:14:51;9.70;66.10
16867;DHT22;8550;52.596;13.320;2023-02-28T11:19:55;10.40;66.00
16867;DHT22;8550;52.596;13.320;2023-02-28T11:25:02;10.50;61.30
16867;DHT22;8550;52.596;13.320;2023-02-28T11:30:33;11.40;57.90
16867;DHT22;8550;52.596;13.320;2023-02-28T11:35:38;11.80;56.00
16867;DHT22;8550;52.596;13.320;2023-02-28T11:40:48;11.90;55.20
16867;DHT22;8550;52.596;13.320;2023-02-28T11:46:10;12.30;52.40
16867;DHT22;8550;52.596;13.320;2023-02-28T11:51:20;13.00;52.40
16867;DHT22;8550;52.596;13.320;2023-02-28T11:56:27;13.70;50.40
16867;DHT22;8550;52.596;13.320;2023-02-28T12:01:58;13.50;48.60
16867;DHT22;8550;52.596;13.320;2023-02-28T12:07:09;13.60;48.80
16867;DHT22;8550;52.596;13.320;2023-02-28T12:12:23;13.20;46.70
16867;DHT22;8550;52.596;13.320;2023-02-28T12:17:41;14.50;46.50
16867;DHT22;8550;52.596;13.320;2023-02-28T12:22:50;14.70;46.40
16867;DHT22;8550;52.596;13.320;2023-02-28T12:27:54;12.40;49.20
16867;DHT22;8550;52.596;13.320;2023-02-28T12:33:03;11.80;51.20
16867;DHT22;8550;52.596;13.320;2023-02-28T12:38:10;10.60;52.40
16867;DHT22;8550;52.596;13.320;2023-02-28T12:43:15;9.60;55.70
16867;DHT22;8550;52.596;13.320;2023-02-28T12:48:24;8.50;59.20
16867;DHT22;8550;52.596;13.320;2023-02-28T12:53:33;8.20;61.40
16867;DHT22;8550;52.596;13.320;2023-02-28T12:58:39;7.40;62.80
16867;DHT22;8550;52.596;13.320;2023-02-28T13:04:01;7.50;63.90
16867;DHT22;8550;52.596;13.320;2023-02-28T13:09:12;7.40;64.50
16867;DHT22;8550;52.596;13.320;2023-02-28T13:14:24;7.30;65.20
16867;DHT22;8550;52.596;13.320;2023-02-28T13:19:30;7.20;65.00
16867;DHT22;8550;52.596;13.320;2023-02-28T13:24:47;7.50;65.20
16867;DHT22;8550;52.596;13.320;2023-02-28T13:29:51;7.90;64.00
16867;DHT22;8550;52.596;13.320;2023-02-28T13:40:37;9.00;61.90
16867;DHT22;8550;52.596;13.320;2023-02-28T13:46:06;10.10;55.80
16867;DHT22;8550;52.596;13.320;2023-02-28T13:51:38;10.00;57.40
16867;DHT22;8550;52.596;13.320;2023-02-28T13:56:45;10.50;57.20
16867;DHT22;8550;52.596;13.320;2023-02-28T14:02:01;10.70;54.80
16867;DHT22;8550;52.596;13.320;2023-02-28T14:07:05;11.00;54.20
16867;DHT22;8550;52.596;13.320;2023-02-28T14:18:20;11.30;53.20
16867;DHT22;8550;52.596;13.320;2023-02-28T14:23:35;11.40;54.00
16867;DHT22;8550;52.596;13.320;2023-02-28T14:28:56;12.30;52.40
16867;DHT22;8550;52.596;13.320;2023-02-28T14:34:30;13.00;51.80
16867;DHT22;8550;52.596;13.320;2023-02-28T14:39:33;13.70;49.30
16867;DHT22;8550;52.596;13.320;2023-02-28T14:44:37;14.50;48.00
16867;DHT22;8550;52.596;13.320;2023-02-28T14:49:47;14.20;46.40
16867;DHT22;8550;52.596;13.320;2023-02-28T14:54:53;16.20;44.50
16867;DHT22;8550;52.596;13.320;2023-02-28T15:00:09;15.40;44.90
16867;DHT22;8550;52.596;13.320;2023-02-28T15:05:24;14.20;45.80
16867;DHT22;8550;52.596;13.320;2023-02-28T15:10:27;16.30;43.50
16867;DHT22;8550;52.596;13.320;2023-02-28T15:15:39;15.60;45.50
16867;DHT22;8550;52.596;13.320;2023-02-28T15:20:44;14.30;45.40
16867;DHT22;8550;52.596;13.320;2023-02-28T15:25:48;14.00;46.60
16867;DHT22;8550;52.596;13.320;2023-02-28T15:30:56;14.10;46.40
16867;DHT22;8550;52.596;13.320;2023-02-28T15:36:13;14.70;44.70
16867;DHT22;8550;52.596;13.320;2023-02-28T15:41:25;13.20;46.30
16867;DHT22;8550;52.596;13.320;2023-02-28T15:46:28;12.90;48.20
16867;DHT22;8550;52.596;13.320;2023-02-28T15:51:34;12.50;48.70
16867;DHT22;8550;52.596;13.320;2023-02-28T15:56:43;12.60;48.20
16867;DHT22;8550;52.596;13.320;2023-02-28T16:02:11;12.30;49.50
16867;DHT22;8550;52.596;13.320;2023-02-28T16:07:15;10.20;54.00
16867;DHT22;8550;52.596;13.320;2023-02-28T16:12:17;9.00;56.10
16867;DHT22;8550;52.596;13.320;2023-02-28T16:17:21;8.00;59.40
16867;DHT22;8550;52.596;13.320;2023-02-28T16:22:25;7.20;61.50
16867;DHT22;8550;52.596;13.320;2023-02-28T16:27:31;6.60;65.60
16867;DHT22;8550;52.596;13.320;2023-02-28T16:32:35;6.10;68.20
16867;DHT22;8550;52.596;13.320;2023-02-28T16:37:38;5.80;69.30
16867;DHT22;8550;52.596;13.320;2023-02-28T16:42:41;5.40;72.90
16867;DHT22;8550;52.596;13.320;2023-02-28T16:47:44;5.10;75.70
16867;DHT22;8550;52.596;13.320;2023-02-28T16:52:47;5.00;76.50
16867;DHT22;8550;52.596;13.320;2023-02-28T16:57:52;4.70;78.50
16867;DHT22;8550;52.596;13.320;2023-02-28T17:02:55;4.40;83.30
16867;DHT22;8550;52.596;13.320;2023-02-28T17:07:58;4.10;87.30
16867;DHT22;8550;52.596;13.320;2023-02-28T17:13:00;4.00;92.60
16867;DHT22;8550;52.596;13.320;2023-02-28T17:18:03;3.70;92.80
16867;DHT22;8550;52.596;13.320;2023-02-28T17:23:08;3.40;93.40
16867;DHT22;8550;52.596;13.320;2023-02-28T17:28:10;3.20;93.70
16867;DHT22;8550;52.596;13.320;2023-02-28T17:33:12;3.00;95.10
16867;DHT22;8550;52.596;13.320;2023-02-28T17:38:19;2.90;96.00
16867;DHT22;8550;52.596;13.320;2023-02-28T17:43:23;2.70;97.20
16867;DHT22;8550;52.596;13.320;2023-02-28T17:48:25;2.50;97.80
16867;DHT22;8550;52.596;13.320;2023-02-28T17:53:29;2.40;98.80
16867;DHT22;8550;52.596;13.320;2023-02-28T17:58:31;2.20;98.90
16867;DHT22;8550;52.596;13.320;2023-02-28T18:03:34;2.10;99.90
16867;DHT22;8550;52.596;13.320;2023-02-28T18:08:37;1.90;99.90
16867;DHT22;8550;52.596;13.320;2023-02-28T18:13:39;2.10;99.90
16867;DHT22;8550;52.596;13.320;2023-02-28T18:18:43;2.50;99.90
16867;DHT22;8550;52.596;13.320;2023-02-28T18:23:46;1.90;99.90
16867;DHT22;8550;52.596;13.320;2023-02-28T18:28:48;1.50;99.90
16867;DHT22;8550;52.596;13.320;2023-02-28T18:33:51;1.30;99.90
16867;DHT22;8550;52.596;13.320;2023-02-28T18:38:55;1.20;99.90
16867;DHT22;8550;52.596;13.320;2023-02-28T18:43:57;1.00;99.90
16867;DHT22;8550;52.596;13.320;2023-02-28T18:49:02;1.00;99.90
16867;DHT22;8550;52.596;13.320;2023-02-28T18:54:06;0.80;99.90
16867;DHT22;8550;52.596;13.320;2023-02-28T18:59:08;0.80;99.90
16867;DHT22;8550;52.596;13.320;2023-02-28T19:04:11;0.90;99.90
16867;DHT22;8550;52.596;13.320;2023-02-28T19:09:15;0.80;99.90
16867;DHT22;8550;52.596;13.320;2023-02-28T19:14:17;0.70;99.90
16867;DHT22;8550;52.596;13.320;2023-02-28T19:19:20;0.70;99.90
16867;DHT22;8550;52.596;13.320;2023-02-28T19:24:24;0.60;99.90
16867;DHT22;8550;52.596;13.320;2023-02-28T19:29:26;0.50;99.90
16867;DHT22;8550;52.596;13.320;2023-02-28T19:34:28;0.50;99.90
16867;DHT22;8550;52.596;13.320;2023-02-28T19:39:31;0.30;99.90
16867;DHT22;8550;52.596;13.320;2023-02-28T19:44:42;0.40;99.90
16867;DHT22;8550;52.596;13.320;2023-02-28T19:49:44;1.00;99.90
16867;DHT22;8550;52.596;13.320;2023-02-28T19:54:48;1.00;99.90
16867;DHT22;8550;52.596;13.320;2023-02-28T19:59:51;0.60;99.90
16867;DHT22;8550;52.596;13.320;2023-02-28T20:04:54;0.30;99.90
16867;DHT22;8550;52.596;13.320;2023-02-28T20:09:59;0.20;99.90
16867;DHT22;8550;52.596;13.320;2023-02-28T20:15:01;0.20;99.90
16867;DHT22;8550;52.596;13.320;2023-02-28T20:20:04;0.20;99.90
16867;DHT22;8550;52.596;13.320;2023-02-28T20:25:12;-0.10;99.90
16867;DHT22;8550;52.596;13.320;2023-02-28T20:30:14;-0.10;99.90
16867;DHT22;8550;52.596;13.320;2023-02-28T20:35:16;-0.20;99.90
16867;DHT22;8550;52.596;13.320;2023-02-28T20:40:20;-0.20;99.90
16867;DHT22;8550;52.596;13.320;2023-02-28T20:45:22;-0.10;99.90
16867;DHT22;8550;52.596;13.320;2023-02-28T20:50:24;-0.30;99.90
16867;DHT22;8550;52.596;13.320;2023-02-28T20:55:27;-0.40;99.90
16867;DHT22;8550;52.596;13.320;2023-02-28T21:00:29;-0.30;99.90
16867;DHT22;8550;52.596;13.320;2023-02-28T21:05:32;-0.50;99.90
16867;DHT22;8550;52.596;13.320;2023-02-28T21:10:37;-0.40;99.90
16867;DHT22;8550;52.596;13.320;2023-02-28T21:15:39;-0.60;99.90
16867;DHT22;8550;52.596;13.320;2023-02-28T21:20:41;-0.70;99.90
16867;DHT22;8550;52.596;13.320;2023-02-28T21:25:46;-0.80;99.90
16867;DHT22;8550;52.596;13.320;2023-02-28T21:30:51;-0.70;99.90
16867;DHT22;8550;52.596;13.320;2023-02-28T21:35:59;-0.80;99.90
16867;DHT22;8550;52.596;13.320;2023-02-28T21:41:07;-0.90;99.90
16867;DHT22;8550;52.596;13.320;2023-02-28T21:46:11;-0.80;99.90
16867;DHT22;8550;52.596;13.320;2023-02-28T21:51:17;-1.00;99.90
16867;DHT22;8550;52.596;13.320;2023-02-28T21:56:24;-1.10;99.90
16867;DHT22;8550;52.596;13.320;2023-02-28T22:01:29;-1.00;99.90
16867;DHT22;8550;52.596;13.320;2023-02-28T22:06:36;-1.00;99.90
16867;DHT22;8550;52.596;13.320;2023-02-28T22:11:46;-1.10;99.90
16867;DHT22;8550;52.596;13.320;2023-02-28T22:16:56;-1.10;99.90
16867;DHT22;8550;52.596;13.320;2023-02-28T22:21:57;-1.00;99.90
16867;DHT22;8550;52.596;13.320;2023-02-28T22:27:01;-1.10;99.90
16867;DHT22;8550;52.596;13.320;2023-02-28T22:32:12;-1.10;99.90
16867;DHT22;8550;52.596;13.320;2023-02-28T22:37:15;-1.20;99.90
16867;DHT22;8550;52.596;13.320;2023-02-28T22:42:19;-1.30;99.90
16867;DHT22;8550;52.596;13.320;2023-02-28T22:47:23;-1.30;99.90
16867;DHT22;8550;52.596;13.320;2023-02-28T22:52:26;-1.40;99.90
16867;DHT22;8550;52.596;13.320;2023-02-28T22:57:29;-1.50;99.90
16867;DHT22;8550;52.596;13.320;2023-02-28T23:02:41;-1.30;99.90
16867;DHT22;8550;52.596;13.320;2023-02-28T23:07:44;-1.40;99.90
16867;DHT22;8550;52.596;13.320;2023-02-28T23:12:59;-1.20;99.90
16867;DHT22;8550;52.596;13.320;2023-02-28T23:18:10;-1.50;99.90
16867;DHT22;8550;52.596;13.320;2023-02-28T23:23:13;-1.50;99.90
16867;DHT22;8550;52.596;13.320;2023-02-28T23:28:23;-1.70;99.90
16867;DHT22;8550;52.596;13.320;2023-02-28T23:33:27;-1.60;99.90
16867;DHT22;8550;52.596;13.320;2023-02-28T23:38:30;-1.80;99.90
16867;DHT22;8550;52.596;13.320;2023-02-28T23:43:34;-1.90;99.90
16867;DHT22;8550;52.596;13.320;2023-02-28T23:48:39;-1.90;99.90
16867;DHT22;8550;52.596;13.320;2023-02-28T23:53:42;-1.70;99.90
16867;DHT22;8550;52.596;13.320;2023-02-28T23:58:47;-2.00;99.90
